createdAt,value
2019-03-29T00:00:01.752Z,1029.51
2019-03-29T00:01:01.739Z,1029.52
2019-03-29T00:02:01.730Z,1029.50
2019-03-29T00:03:01.723Z,1029.56
2019-03-29T00:04:01.714Z,1029.44
2019-03-29T00:05:01.706Z,1029.47
2019-03-29T00:06:01.694Z,1029.48
2019-03-29T00:07:01.684Z,1029.48
2019-03-29T00:08:01.671Z,1029.46
2019-03-29T00:09:02.084Z,1029.43
2019-03-29T00:10:01.653Z,1029.40
2019-03-29T00:11:01.645Z,1029.41
2019-03-29T00:12:01.629Z,1029.40
2019-03-29T00:13:01.621Z,1029.43
2019-03-29T00:14:01.614Z,1029.40
2019-03-29T00:15:01.611Z,1029.39
2019-03-29T00:16:01.597Z,1029.39
2019-03-29T00:17:01.589Z,1029.37
2019-03-29T00:18:01.577Z,1029.37
2019-03-29T00:19:02.047Z,1029.39
2019-03-29T00:20:01.556Z,1029.39
2019-03-29T00:21:01.545Z,1029.39
2019-03-29T00:22:01.537Z,1029.40
2019-03-29T00:23:01.526Z,1029.38
2019-03-29T00:24:07.068Z,1029.38
2019-03-29T00:25:01.511Z,1029.32
2019-03-29T00:26:01.496Z,1029.37
2019-03-29T00:27:01.487Z,1029.33
2019-03-29T00:28:01.483Z,1029.29
2019-03-29T00:29:01.476Z,1029.30
2019-03-29T00:30:01.461Z,1029.31
2019-03-29T00:31:01.450Z,1029.32
2019-03-29T00:32:01.438Z,1029.28
2019-03-29T00:33:01.426Z,1029.28
2019-03-29T00:34:01.418Z,1029.22
2019-03-29T00:35:01.407Z,1029.22
2019-03-29T00:36:01.410Z,1029.19
2019-03-29T00:37:01.391Z,1029.21
2019-03-29T00:38:01.384Z,1029.23
2019-03-29T00:39:01.382Z,1029.17
2019-03-29T00:40:01.361Z,1029.19
2019-03-29T00:41:01.350Z,1029.14
2019-03-29T00:42:01.345Z,1029.16
2019-03-29T00:43:01.334Z,1029.19
2019-03-29T00:44:01.349Z,1029.14
2019-03-29T00:45:01.311Z,1029.14
2019-03-29T00:46:01.298Z,1029.12
2019-03-29T00:47:01.289Z,1029.09
2019-03-29T00:48:01.282Z,1029.09
2019-03-29T00:49:01.273Z,1029.11
2019-03-29T00:50:01.266Z,1029.07
2019-03-29T00:51:01.254Z,1029.08
2019-03-29T00:52:01.239Z,1029.04
2019-03-29T00:53:01.228Z,1029.03
2019-03-29T00:54:01.944Z,1029.00
2019-03-29T00:55:01.212Z,1029.02
2019-03-29T00:56:01.303Z,1028.99
2019-03-29T00:57:01.250Z,1028.98
2019-03-29T00:58:01.184Z,1028.92
2019-03-29T00:59:01.172Z,1028.94
2019-03-29T01:00:01.168Z,1028.91
2019-03-29T01:01:01.174Z,1028.89
2019-03-29T01:02:01.146Z,1028.87
2019-03-29T01:03:01.135Z,1028.83
2019-03-29T01:04:01.120Z,1028.79
2019-03-29T01:05:01.113Z,1028.80
2019-03-29T01:06:01.101Z,1028.81
2019-03-29T01:07:01.091Z,1028.78
2019-03-29T01:08:07.729Z,1028.73
2019-03-29T01:09:01.075Z,1028.73
2019-03-29T01:10:01.070Z,1028.71
2019-03-29T01:11:01.056Z,1028.69
2019-03-29T01:12:01.045Z,1028.71
2019-03-29T01:13:01.031Z,1028.70
2019-03-29T01:14:01.028Z,1028.73
2019-03-29T01:15:01.016Z,1028.69
2019-03-29T01:16:01.179Z,1028.63
2019-03-29T01:17:00.994Z,1028.70
2019-03-29T01:18:00.983Z,1028.78
2019-03-29T01:19:00.968Z,1028.75
2019-03-29T01:20:00.964Z,1028.73
2019-03-29T01:21:01.023Z,1028.75
2019-03-29T01:22:00.948Z,1028.72
2019-03-29T01:23:00.936Z,1028.71
2019-03-29T01:24:00.921Z,1028.65
2019-03-29T01:25:00.914Z,1028.65
2019-03-29T01:26:01.121Z,1028.67
2019-03-29T01:27:00.887Z,1028.60
2019-03-29T01:28:00.887Z,1028.61
2019-03-29T01:29:00.875Z,1028.65
2019-03-29T01:30:00.859Z,1028.60
2019-03-29T01:31:00.849Z,1028.57
2019-03-29T01:32:00.842Z,1028.60
2019-03-29T01:33:00.833Z,1028.64
2019-03-29T01:34:00.833Z,1028.62
2019-03-29T01:35:00.816Z,1028.60
2019-03-29T01:36:01.296Z,1028.53
2019-03-29T01:37:00.791Z,1028.54
2019-03-29T01:38:00.781Z,1028.62
2019-03-29T01:39:00.768Z,1028.58
2019-03-29T01:40:00.764Z,1028.53
2019-03-29T01:41:01.118Z,1028.51
2019-03-29T01:42:00.741Z,1028.57
2019-03-29T01:43:00.731Z,1028.53
2019-03-29T01:44:01.876Z,1028.51
2019-03-29T01:45:00.707Z,1028.51
2019-03-29T01:46:00.700Z,1028.45
2019-03-29T01:47:00.689Z,1028.52
2019-03-29T01:48:00.675Z,1028.47
2019-03-29T01:49:00.665Z,1028.44
2019-03-29T01:50:00.658Z,1028.48
2019-03-29T01:51:01.299Z,1028.50
2019-03-29T01:52:00.640Z,1028.49
2019-03-29T01:53:00.632Z,1028.47
2019-03-29T01:54:00.621Z,1028.45
2019-03-29T01:55:00.610Z,1028.40
2019-03-29T01:56:00.596Z,1028.44
2019-03-29T01:57:00.586Z,1028.39
2019-03-29T01:58:00.574Z,1028.40
2019-03-29T01:59:00.563Z,1028.34
2019-03-29T02:00:00.559Z,1028.37
2019-03-29T02:01:00.548Z,1028.34
2019-03-29T02:02:00.535Z,1028.28
2019-03-29T02:03:00.523Z,1028.30
2019-03-29T02:04:00.518Z,1028.28
2019-03-29T02:05:01.171Z,1028.31
2019-03-29T02:06:00.497Z,1028.29
2019-03-29T02:07:00.489Z,1028.29
2019-03-29T02:08:00.475Z,1028.17
2019-03-29T02:09:00.466Z,1028.26
2019-03-29T02:10:00.452Z,1028.19
2019-03-29T02:11:00.442Z,1028.19
2019-03-29T02:12:00.439Z,1028.12
2019-03-29T02:13:00.426Z,1028.10
2019-03-29T02:14:00.415Z,1028.11
2019-03-29T02:15:00.403Z,1028.13
2019-03-29T02:16:00.389Z,1028.11
2019-03-29T02:17:00.378Z,1028.08
2019-03-29T02:18:00.374Z,1028.07
2019-03-29T02:19:00.363Z,1028.08
2019-03-29T02:20:00.346Z,1028.10
2019-03-29T02:21:00.338Z,1028.08
2019-03-29T02:22:00.331Z,1028.06
2019-03-29T02:23:00.319Z,1028.12
2019-03-29T02:24:00.317Z,1028.11
2019-03-29T02:25:00.442Z,1028.10
2019-03-29T02:26:00.291Z,1028.09
2019-03-29T02:27:00.980Z,1028.15
2019-03-29T02:28:00.264Z,1028.13
2019-03-29T02:29:00.254Z,1028.18
2019-03-29T02:30:00.561Z,1028.15
2019-03-29T02:31:00.236Z,1028.18
2019-03-29T02:32:00.232Z,1028.11
2019-03-29T02:33:00.224Z,1028.15
2019-03-29T02:34:00.212Z,1028.14
2019-03-29T02:35:00.474Z,1028.17
2019-03-29T02:36:00.198Z,1028.11
2019-03-29T02:37:01.940Z,1028.13
2019-03-29T02:38:00.185Z,1028.15
2019-03-29T02:39:00.157Z,1028.15
2019-03-29T02:40:00.632Z,1028.12
2019-03-29T02:41:00.136Z,1028.17
2019-03-29T02:42:00.123Z,1028.17
2019-03-29T02:43:00.117Z,1028.21
2019-03-29T02:44:00.105Z,1028.17
2019-03-29T02:45:00.455Z,1028.20
2019-03-29T02:46:00.090Z,1028.16
2019-03-29T02:47:00.080Z,1028.17
2019-03-29T02:48:00.065Z,1028.18
2019-03-29T02:49:00.055Z,1028.17
2019-03-29T02:50:00.052Z,1028.16
2019-03-29T02:51:00.037Z,1028.18
2019-03-29T02:52:00.024Z,1028.16
2019-03-29T02:53:00.015Z,1028.13
2019-03-29T02:54:00.001Z,1028.15
2019-03-29T02:54:59.989Z,1028.09
2019-03-29T02:55:59.985Z,1028.10
2019-03-29T02:56:59.974Z,1028.08
2019-03-29T02:57:59.964Z,1028.17
2019-03-29T02:58:59.956Z,1028.12
2019-03-29T02:59:59.941Z,1028.16
2019-03-29T03:00:59.941Z,1028.15
2019-03-29T03:01:59.923Z,1028.14
2019-03-29T03:02:59.910Z,1028.20
2019-03-29T03:03:59.907Z,1028.19
2019-03-29T03:04:59.896Z,1028.12
2019-03-29T03:05:59.883Z,1028.13
2019-03-29T03:06:59.873Z,1028.14
2019-03-29T03:07:59.868Z,1028.10
2019-03-29T03:09:13.110Z,1028.11
2019-03-29T03:09:59.844Z,1028.13
2019-03-29T03:10:59.836Z,1028.12
2019-03-29T03:11:59.830Z,1028.10
2019-03-29T03:12:59.809Z,1028.10
2019-03-29T03:13:59.801Z,1028.08
2019-03-29T03:14:59.787Z,1028.06
2019-03-29T03:15:59.784Z,1028.07
2019-03-29T03:16:59.773Z,1028.08
2019-03-29T03:17:59.765Z,1028.08
2019-03-29T03:18:59.761Z,1028.08
2019-03-29T03:19:59.740Z,1028.04
2019-03-29T03:20:59.733Z,1028.04
2019-03-29T03:21:59.728Z,1028.04
2019-03-29T03:22:59.714Z,1028.04
2019-03-29T03:23:59.700Z,1028.04
2019-03-29T03:24:59.697Z,1028.03
2019-03-29T03:25:59.677Z,1028.05
2019-03-29T03:26:59.667Z,1028.03
2019-03-29T03:27:59.662Z,1028.04
2019-03-29T03:28:59.652Z,1028.02
2019-03-29T03:29:59.649Z,1028.06
2019-03-29T03:30:59.633Z,1028.04
2019-03-29T03:31:59.620Z,1028.05
2019-03-29T03:32:59.609Z,1028.08
2019-03-29T03:33:59.599Z,1028.08
2019-03-29T03:34:59.585Z,1028.08
2019-03-29T03:35:59.579Z,1028.05
2019-03-29T03:36:59.570Z,1028.06
2019-03-29T03:37:59.556Z,1028.05
2019-03-29T03:38:59.545Z,1028.09
2019-03-29T03:39:59.551Z,1028.10
2019-03-29T03:40:59.545Z,1028.08
2019-03-29T03:41:59.709Z,1028.08
2019-03-29T03:42:59.515Z,1028.06
2019-03-29T03:43:59.496Z,1028.05
2019-03-29T03:44:59.486Z,1028.04
2019-03-29T03:45:59.474Z,1028.06
2019-03-29T03:46:59.481Z,1028.07
2019-03-29T03:47:59.457Z,1028.08
2019-03-29T03:48:59.459Z,1028.10
2019-03-29T03:50:01.148Z,1028.11
2019-03-29T03:50:59.424Z,1028.13
2019-03-29T03:51:59.409Z,1028.13
2019-03-29T03:52:59.399Z,1028.16
2019-03-29T03:53:59.405Z,1028.15
2019-03-29T03:54:59.390Z,1028.16
2019-03-29T03:55:59.369Z,1028.17
2019-03-29T03:56:59.359Z,1028.14
2019-03-29T03:57:59.352Z,1028.16
2019-03-29T03:58:59.341Z,1028.15
2019-03-29T03:59:59.345Z,1028.22
2019-03-29T04:00:59.353Z,1028.13
2019-03-29T04:01:59.313Z,1028.19
2019-03-29T04:02:59.308Z,1028.16
2019-03-29T04:03:59.289Z,1028.15
2019-03-29T04:04:59.284Z,1028.19
2019-03-29T04:05:59.267Z,1028.11
2019-03-29T04:06:59.254Z,1028.13
2019-03-29T04:07:59.251Z,1028.14
2019-03-29T04:08:59.237Z,1028.11
2019-03-29T04:09:59.225Z,1028.10
2019-03-29T04:10:59.216Z,1028.11
2019-03-29T04:11:59.208Z,1028.06
2019-03-29T04:12:59.202Z,1028.08
2019-03-29T04:13:59.192Z,1028.09
2019-03-29T04:14:59.180Z,1028.15
2019-03-29T04:15:59.167Z,1028.07
2019-03-29T04:16:59.159Z,1028.18
2019-03-29T04:17:59.146Z,1028.19
2019-03-29T04:18:59.134Z,1028.16
2019-03-29T04:19:59.130Z,1028.24
2019-03-29T04:20:59.116Z,1028.24
2019-03-29T04:21:59.104Z,1028.17
2019-03-29T04:22:59.100Z,1028.25
2019-03-29T04:23:59.078Z,1028.20
2019-03-29T04:24:59.069Z,1028.19
2019-03-29T04:25:59.063Z,1028.17
2019-03-29T04:26:59.053Z,1028.12
2019-03-29T04:27:59.035Z,1028.16
2019-03-29T04:29:04.902Z,1028.08
2019-03-29T04:29:59.017Z,1028.16
2019-03-29T04:30:59.010Z,1028.11
2019-03-29T04:31:59.008Z,1028.14
2019-03-29T04:32:59.157Z,1028.12
2019-03-29T04:33:58.982Z,1028.09
2019-03-29T04:34:58.970Z,1028.06
2019-03-29T04:35:58.959Z,1028.04
2019-03-29T04:36:58.943Z,1028.06
2019-03-29T04:37:58.932Z,1028.07
2019-03-29T04:38:58.921Z,1028.09
2019-03-29T04:40:07.158Z,1028.05
2019-03-29T04:40:58.904Z,1028.07
2019-03-29T04:41:58.894Z,1028.08
2019-03-29T04:42:58.877Z,1028.12
2019-03-29T04:43:58.872Z,1028.03
2019-03-29T04:44:59.978Z,1028.06
2019-03-29T04:45:58.852Z,1028.06
2019-03-29T04:46:58.842Z,1028.09
2019-03-29T04:47:58.828Z,1028.11
2019-03-29T04:48:58.819Z,1028.14
2019-03-29T04:49:58.815Z,1028.10
2019-03-29T04:50:58.797Z,1028.13
2019-03-29T04:51:58.788Z,1028.15
2019-03-29T04:52:58.779Z,1028.16
2019-03-29T04:53:58.766Z,1028.17
2019-03-29T04:54:58.754Z,1028.12
2019-03-29T04:55:58.741Z,1028.04
2019-03-29T04:56:58.728Z,1028.05
2019-03-29T04:57:58.809Z,1028.08
2019-03-29T04:58:58.712Z,1028.04
2019-03-29T04:59:58.699Z,1028.04
2019-03-29T05:00:58.688Z,1028.05
2019-03-29T05:01:58.681Z,1028.04
2019-03-29T05:02:58.676Z,1028.02
2019-03-29T05:03:58.661Z,1028.04
2019-03-29T05:04:58.652Z,1028.05
2019-03-29T05:05:58.641Z,1028.01
2019-03-29T05:06:58.630Z,1027.98
2019-03-29T05:07:58.617Z,1028.01
2019-03-29T05:08:58.604Z,1027.96
2019-03-29T05:09:58.590Z,1027.97
2019-03-29T05:10:58.579Z,1028.00
2019-03-29T05:11:58.575Z,1027.96
2019-03-29T05:12:59.723Z,1027.95
2019-03-29T05:13:58.549Z,1027.95
2019-03-29T05:14:58.540Z,1027.97
2019-03-29T05:15:58.532Z,1028.02
2019-03-29T05:16:58.524Z,1027.93
2019-03-29T05:17:58.513Z,1027.94
2019-03-29T05:18:58.500Z,1028.00
2019-03-29T05:19:58.486Z,1027.96
2019-03-29T05:20:58.475Z,1027.95
2019-03-29T05:21:58.465Z,1027.97
2019-03-29T05:22:58.454Z,1027.95
2019-03-29T05:23:58.447Z,1027.97
2019-03-29T05:24:58.437Z,1028.00
2019-03-29T05:25:58.425Z,1027.96
2019-03-29T05:26:58.413Z,1027.98
2019-03-29T05:27:58.397Z,1027.96
2019-03-29T05:28:58.388Z,1027.95
2019-03-29T05:29:58.383Z,1027.95
2019-03-29T05:30:58.369Z,1027.96
2019-03-29T05:31:58.357Z,1027.93
2019-03-29T05:32:58.347Z,1027.89
2019-03-29T05:33:58.337Z,1027.87
2019-03-29T05:34:58.327Z,1027.89
2019-03-29T05:35:58.318Z,1027.92
2019-03-29T05:36:58.659Z,1027.90
2019-03-29T05:37:58.297Z,1027.95
2019-03-29T05:38:58.286Z,1027.93
2019-03-29T05:39:58.285Z,1028.03
2019-03-29T05:40:58.259Z,1028.09
2019-03-29T05:41:58.252Z,1028.09
2019-03-29T05:42:58.243Z,1028.09
2019-03-29T05:43:58.234Z,1028.12
2019-03-29T05:44:58.227Z,1028.11
2019-03-29T05:45:58.210Z,1028.20
2019-03-29T05:46:58.200Z,1028.17
2019-03-29T05:47:58.195Z,1028.21
2019-03-29T05:48:58.190Z,1028.13
2019-03-29T05:49:58.172Z,1028.27
2019-03-29T05:50:58.162Z,1028.26
2019-03-29T05:51:58.146Z,1028.27
2019-03-29T05:52:58.139Z,1028.32
2019-03-29T05:53:58.129Z,1028.30
2019-03-29T05:54:58.119Z,1028.38
2019-03-29T05:55:58.114Z,1028.34
2019-03-29T05:56:58.106Z,1028.42
2019-03-29T05:57:58.099Z,1028.44
2019-03-29T05:58:58.089Z,1028.46
2019-03-29T05:59:58.077Z,1028.44
2019-03-29T06:00:58.068Z,1028.45
2019-03-29T06:01:58.064Z,1028.46
2019-03-29T06:02:58.057Z,1028.45
2019-03-29T06:03:58.043Z,1028.51
2019-03-29T06:04:58.037Z,1028.52
2019-03-29T06:05:58.026Z,1028.56
2019-03-29T06:06:58.020Z,1028.60
2019-03-29T06:07:58.017Z,1028.63
2019-03-29T06:08:58.008Z,1028.67
2019-03-29T06:09:58.002Z,1028.70
2019-03-29T06:10:57.993Z,1028.65
2019-03-29T06:11:57.982Z,1028.66
2019-03-29T06:12:57.978Z,1028.73
2019-03-29T06:13:57.972Z,1028.77
2019-03-29T06:14:57.966Z,1028.73
2019-03-29T06:15:57.963Z,1028.81
2019-03-29T06:16:57.957Z,1028.76
2019-03-29T06:17:57.948Z,1028.80
2019-03-29T06:18:57.943Z,1028.80
2019-03-29T06:19:57.940Z,1028.83
2019-03-29T06:20:57.936Z,1028.85
2019-03-29T06:21:57.930Z,1028.92
2019-03-29T06:22:57.924Z,1028.87
2019-03-29T06:23:57.914Z,1028.90
2019-03-29T06:24:57.908Z,1028.86
2019-03-29T06:25:57.906Z,1028.92
2019-03-29T06:26:57.985Z,1028.93
2019-03-29T06:27:57.902Z,1028.95
2019-03-29T06:28:57.897Z,1028.93
2019-03-29T06:29:57.896Z,1028.96
2019-03-29T06:30:57.897Z,1028.96
2019-03-29T06:31:57.885Z,1028.97
2019-03-29T06:32:57.884Z,1028.99
2019-03-29T06:33:57.883Z,1029.00
2019-03-29T06:34:57.880Z,1029.04
2019-03-29T06:35:57.873Z,1029.03
2019-03-29T06:36:57.870Z,1028.99
2019-03-29T06:37:57.867Z,1029.04
2019-03-29T06:38:57.864Z,1029.04
2019-03-29T06:39:57.866Z,1029.07
2019-03-29T06:41:03.241Z,1029.05
2019-03-29T06:41:57.866Z,1029.07
2019-03-29T06:42:57.864Z,1029.13
2019-03-29T06:43:57.861Z,1029.15
2019-03-29T06:44:57.859Z,1029.18
2019-03-29T06:45:57.856Z,1029.13
2019-03-29T06:46:57.855Z,1029.18
2019-03-29T06:47:57.858Z,1029.22
2019-03-29T06:48:57.860Z,1029.21
2019-03-29T06:49:57.853Z,1029.19
2019-03-29T06:50:57.857Z,1029.23
2019-03-29T06:51:57.857Z,1029.21
2019-03-29T06:52:57.860Z,1029.24
2019-03-29T06:53:57.865Z,1029.27
2019-03-29T06:54:57.863Z,1029.32
2019-03-29T06:55:59.475Z,1029.31
2019-03-29T06:56:57.861Z,1029.34
2019-03-29T06:57:57.865Z,1029.35
2019-03-29T06:58:57.862Z,1029.39
2019-03-29T06:59:57.868Z,1029.40
2019-03-29T07:00:57.869Z,1029.41
2019-03-29T07:01:57.873Z,1029.45
2019-03-29T07:02:57.872Z,1029.44
2019-03-29T07:03:57.868Z,1029.48
2019-03-29T07:04:57.871Z,1029.49
2019-03-29T07:05:57.879Z,1029.49
2019-03-29T07:06:57.881Z,1029.50
2019-03-29T07:07:57.879Z,1029.54
2019-03-29T07:08:57.881Z,1029.50
2019-03-29T07:09:57.888Z,1029.56
2019-03-29T07:10:57.890Z,1029.54
2019-03-29T07:11:57.898Z,1029.53
2019-03-29T07:12:57.903Z,1029.55
2019-03-29T07:13:58.262Z,1029.50
2019-03-29T07:14:57.906Z,1029.44
2019-03-29T07:15:57.909Z,1029.51
2019-03-29T07:16:57.911Z,1029.52
2019-03-29T07:17:57.911Z,1029.50
2019-03-29T07:18:57.916Z,1029.50
2019-03-29T07:19:57.923Z,1029.56
2019-03-29T07:20:57.930Z,1029.54
2019-03-29T07:21:57.928Z,1029.54
2019-03-29T07:22:57.930Z,1029.52
2019-03-29T07:23:57.941Z,1029.52
2019-03-29T07:24:57.943Z,1029.50
2019-03-29T07:25:57.951Z,1029.46
2019-03-29T07:26:57.954Z,1029.52
2019-03-29T07:27:57.953Z,1029.52
2019-03-29T07:28:57.959Z,1029.55
2019-03-29T07:29:57.963Z,1029.53
2019-03-29T07:30:57.967Z,1029.52
2019-03-29T07:31:57.975Z,1029.49
2019-03-29T07:32:57.980Z,1029.55
2019-03-29T07:33:57.983Z,1029.53
2019-03-29T07:34:57.989Z,1029.53
2019-03-29T07:35:57.990Z,1029.54
2019-03-29T07:36:57.991Z,1029.56
2019-03-29T07:37:58.000Z,1029.56
2019-03-29T07:38:58.005Z,1029.52
2019-03-29T07:39:58.004Z,1029.58
2019-03-29T07:40:58.010Z,1029.59
2019-03-29T07:41:58.021Z,1029.56
2019-03-29T07:42:58.020Z,1029.61
2019-03-29T07:43:58.031Z,1029.61
2019-03-29T07:44:58.037Z,1029.64
2019-03-29T07:45:58.038Z,1029.67
2019-03-29T07:46:58.045Z,1029.75
2019-03-29T07:47:58.044Z,1029.71
2019-03-29T07:48:58.052Z,1029.75
2019-03-29T07:49:58.060Z,1029.78
2019-03-29T07:50:58.065Z,1029.79
2019-03-29T07:51:58.077Z,1029.78
2019-03-29T07:52:58.081Z,1029.73
2019-03-29T07:53:58.085Z,1029.75
2019-03-29T07:54:58.095Z,1029.80
2019-03-29T07:55:58.107Z,1029.86
2019-03-29T07:56:58.111Z,1029.85
2019-03-29T07:57:58.115Z,1029.86
2019-03-29T07:58:58.119Z,1029.84
2019-03-29T07:59:58.122Z,1029.83
2019-03-29T08:00:58.128Z,1029.82
2019-03-29T08:01:58.138Z,1029.82
2019-03-29T08:02:58.142Z,1029.87
2019-03-29T08:03:58.156Z,1029.89
2019-03-29T08:04:58.165Z,1029.86
2019-03-29T08:05:58.171Z,1029.88
2019-03-29T08:06:58.178Z,1029.87
2019-03-29T08:07:58.182Z,1029.91
2019-03-29T08:08:58.191Z,1029.93
2019-03-29T08:09:58.203Z,1029.92
2019-03-29T08:10:59.075Z,1029.96
2019-03-29T08:11:58.214Z,1029.98
2019-03-29T08:12:58.222Z,1029.98
2019-03-29T08:13:58.227Z,1029.95
2019-03-29T08:14:58.236Z,1029.94
2019-03-29T08:15:58.247Z,1029.98
2019-03-29T08:16:58.257Z,1030.04
2019-03-29T08:18:01.363Z,1029.99
2019-03-29T08:18:58.272Z,1030.00
2019-03-29T08:20:35.986Z,1030.00
2019-03-29T08:20:58.293Z,1029.99
2019-03-29T08:21:58.300Z,1029.96
2019-03-29T08:22:58.305Z,1029.96
2019-03-29T08:23:58.318Z,1029.95
2019-03-29T08:24:59.332Z,1029.95
2019-03-29T08:25:58.335Z,1029.97
2019-03-29T08:26:58.343Z,1029.90
2019-03-29T08:27:58.355Z,1029.13
2019-03-29T08:28:58.364Z,1029.13
2019-03-29T08:29:58.369Z,1029.17
2019-03-29T08:30:58.378Z,1029.14
2019-03-29T08:31:58.381Z,1029.14
2019-03-29T08:32:58.390Z,1029.12
2019-03-29T08:33:58.401Z,1029.14
2019-03-29T08:34:58.410Z,1029.13
2019-03-29T08:35:58.422Z,1029.13
2019-03-29T08:36:58.433Z,1029.10
2019-03-29T08:37:58.444Z,1029.09
2019-03-29T08:38:58.452Z,1029.13
2019-03-29T08:39:58.462Z,1029.13
2019-03-29T08:40:58.467Z,1029.16
2019-03-29T08:42:00.323Z,1029.13
2019-03-29T08:42:58.492Z,1029.09
2019-03-29T08:43:58.496Z,1029.11
2019-03-29T08:44:58.507Z,1029.03
2019-03-29T08:45:58.515Z,1029.03
2019-03-29T08:46:58.524Z,1029.00
2019-03-29T08:47:58.538Z,1028.96
2019-03-29T08:48:58.547Z,1028.99
2019-03-29T08:49:58.556Z,1029.00
2019-03-29T08:50:58.567Z,1029.00
2019-03-29T08:51:58.581Z,1029.02
2019-03-29T08:52:58.591Z,1029.04
2019-03-29T08:53:58.603Z,1029.07
2019-03-29T08:54:58.609Z,1029.05
2019-03-29T08:55:58.620Z,1029.05
2019-03-29T08:56:58.627Z,1029.05
2019-03-29T08:57:58.643Z,1029.06
2019-03-29T08:58:58.654Z,1029.11
2019-03-29T08:59:58.661Z,1029.10
2019-03-29T09:00:58.674Z,1029.06
2019-03-29T09:01:58.686Z,1029.07
2019-03-29T09:02:58.713Z,1029.07
2019-03-29T09:04:05.008Z,1029.05
2019-03-29T09:04:58.724Z,1029.07
2019-03-29T09:05:58.737Z,1029.03
2019-03-29T09:06:58.747Z,1029.02
2019-03-29T09:07:58.758Z,1029.03
2019-03-29T09:08:58.769Z,1028.97
2019-03-29T09:09:58.776Z,1028.99
2019-03-29T09:10:58.790Z,1028.97
2019-03-29T09:11:58.804Z,1028.97
2019-03-29T09:12:58.818Z,1028.97
2019-03-29T09:13:58.826Z,1028.99
2019-03-29T09:14:58.836Z,1028.96
2019-03-29T09:15:58.856Z,1028.98
2019-03-29T09:16:58.864Z,1028.88
2019-03-29T09:18:00.005Z,1028.87
2019-03-29T09:18:58.891Z,1028.89
2019-03-29T09:19:58.899Z,1028.90
2019-03-29T09:20:58.936Z,1028.93
2019-03-29T09:21:58.925Z,1028.93
2019-03-29T09:22:58.972Z,1028.93
2019-03-29T09:23:58.954Z,1028.99
2019-03-29T09:24:58.966Z,1028.91
2019-03-29T09:25:58.979Z,1028.92
2019-03-29T09:26:58.990Z,1028.91
2019-03-29T09:27:58.999Z,1028.92
2019-03-29T09:28:59.011Z,1028.94
2019-03-29T09:29:59.029Z,1028.96
2019-03-29T09:30:59.039Z,1028.98
2019-03-29T09:31:59.054Z,1028.93
2019-03-29T09:32:59.062Z,1028.95
2019-03-29T09:33:59.167Z,1028.96
2019-03-29T09:34:59.093Z,1029.01
2019-03-29T09:35:59.105Z,1029.04
2019-03-29T09:37:00.104Z,1029.02
2019-03-29T09:37:59.131Z,1029.05
2019-03-29T09:38:59.145Z,1028.98
2019-03-29T09:39:59.154Z,1029.02
2019-03-29T09:40:59.460Z,1028.97
2019-03-29T09:41:59.178Z,1029.09
2019-03-29T09:43:07.180Z,1029.07
2019-03-29T09:43:59.209Z,1029.16
2019-03-29T09:44:59.223Z,1029.19
2019-03-29T09:45:59.233Z,1029.16
2019-03-29T09:46:59.250Z,1029.15
2019-03-29T09:47:59.264Z,1029.19
2019-03-29T09:48:59.280Z,1029.15
2019-03-29T09:49:59.298Z,1029.12
2019-03-29T09:50:59.307Z,1029.05
2019-03-29T09:51:59.325Z,1029.03
2019-03-29T09:53:01.152Z,1029.04
2019-03-29T09:53:59.372Z,1028.94
2019-03-29T09:54:59.360Z,1028.93
2019-03-29T09:55:59.379Z,1028.93
2019-03-29T09:56:59.395Z,1028.90
2019-03-29T09:57:59.416Z,1028.77
2019-03-29T09:58:59.421Z,1028.62
2019-03-29T09:59:59.432Z,1028.58
2019-03-29T10:00:59.449Z,1028.52
2019-03-29T10:01:59.465Z,1028.53
2019-03-29T10:02:59.481Z,1028.50
2019-03-29T10:03:59.494Z,1028.47
2019-03-29T10:04:59.508Z,1028.33
2019-03-29T10:05:59.518Z,1028.27
2019-03-29T10:06:59.536Z,1028.25
2019-03-29T10:07:59.548Z,1028.22
2019-03-29T10:08:59.562Z,1028.23
2019-03-29T10:09:59.578Z,1028.17
2019-03-29T10:10:59.589Z,1028.17
2019-03-29T10:11:59.603Z,1028.15
2019-03-29T10:12:59.614Z,1028.17
2019-03-29T10:13:59.630Z,1028.15
2019-03-29T10:14:59.643Z,1028.12
2019-03-29T10:15:59.663Z,1028.14
2019-03-29T10:16:59.677Z,1028.07
2019-03-29T10:17:59.686Z,1028.08
2019-03-29T10:18:59.700Z,1028.09
2019-03-29T10:19:59.722Z,1028.07
2019-03-29T10:20:59.733Z,1028.01
2019-03-29T10:21:59.743Z,1027.98
2019-03-29T10:22:59.757Z,1028.00
2019-03-29T10:23:59.770Z,1027.92
2019-03-29T10:25:02.250Z,1027.89
2019-03-29T10:25:59.795Z,1027.83
2019-03-29T10:26:59.808Z,1027.87
2019-03-29T10:27:59.831Z,1027.84
2019-03-29T10:28:59.842Z,1027.83
2019-03-29T10:29:59.857Z,1027.82
2019-03-29T10:30:59.872Z,1027.80
2019-03-29T10:32:00.073Z,1027.78
2019-03-29T10:32:59.895Z,1027.75
2019-03-29T10:33:59.917Z,1027.75
2019-03-29T10:34:59.927Z,1027.67
2019-03-29T10:35:59.939Z,1027.62
2019-03-29T10:36:59.950Z,1027.64
2019-03-29T10:37:59.962Z,1027.65
2019-03-29T10:38:59.975Z,1027.61
2019-03-29T10:39:59.997Z,1027.65
2019-03-29T10:41:00.008Z,1027.60
2019-03-29T10:42:00.020Z,1027.59
2019-03-29T10:43:00.034Z,1027.56
2019-03-29T10:44:00.042Z,1027.55
2019-03-29T10:45:00.380Z,1027.54
2019-03-29T10:46:00.074Z,1027.49
2019-03-29T10:47:00.086Z,1027.50
2019-03-29T10:48:00.108Z,1027.52
2019-03-29T10:49:00.119Z,1027.50
2019-03-29T10:50:00.345Z,1027.47
2019-03-29T10:51:00.144Z,1027.46
2019-03-29T10:52:00.161Z,1027.44
2019-03-29T10:53:00.177Z,1027.42
2019-03-29T10:54:00.188Z,1027.44
2019-03-29T10:55:00.366Z,1027.36
2019-03-29T10:56:00.310Z,1027.37
2019-03-29T10:57:00.224Z,1027.38
2019-03-29T10:58:00.241Z,1027.34
2019-03-29T10:59:00.257Z,1027.33
2019-03-29T11:00:00.408Z,1027.35
2019-03-29T11:01:00.285Z,1027.33
2019-03-29T11:02:00.300Z,1027.28
2019-03-29T11:03:00.311Z,1027.31
2019-03-29T11:04:00.317Z,1027.29
2019-03-29T11:05:00.354Z,1027.27
2019-03-29T11:06:00.351Z,1027.28
2019-03-29T11:07:00.363Z,1027.25
2019-03-29T11:08:00.372Z,1027.24
2019-03-29T11:09:00.383Z,1027.18
2019-03-29T11:10:00.477Z,1027.25
2019-03-29T11:11:00.412Z,1027.16
2019-03-29T11:12:00.429Z,1027.18
2019-03-29T11:13:11.959Z,1027.12
2019-03-29T11:14:00.455Z,1027.12
2019-03-29T11:15:00.468Z,1027.06
2019-03-29T11:16:00.485Z,1027.10
2019-03-29T11:17:00.489Z,1027.09
2019-03-29T11:18:00.498Z,1027.03
2019-03-29T11:19:00.510Z,1027.04
2019-03-29T11:20:00.528Z,1027.06
2019-03-29T11:21:00.540Z,1027.00
2019-03-29T11:22:00.553Z,1026.99
2019-03-29T11:23:00.562Z,1026.96
2019-03-29T11:24:00.575Z,1026.91
2019-03-29T11:25:00.590Z,1026.99
2019-03-29T11:26:00.608Z,1026.92
2019-03-29T11:27:00.622Z,1026.88
2019-03-29T11:28:00.624Z,1026.79
2019-03-29T11:29:00.636Z,1026.77
2019-03-29T11:30:00.649Z,1026.64
2019-03-29T11:31:00.656Z,1026.59
2019-03-29T11:32:00.672Z,1026.54
2019-03-29T11:33:00.683Z,1026.56
2019-03-29T11:34:00.693Z,1026.48
2019-03-29T11:35:00.702Z,1026.48
2019-03-29T11:36:00.707Z,1026.46
2019-03-29T11:37:00.716Z,1026.53
2019-03-29T11:38:00.730Z,1026.43
2019-03-29T11:39:00.744Z,1026.44
2019-03-29T11:40:00.743Z,1026.38
2019-03-29T11:41:00.752Z,1026.39
2019-03-29T11:42:03.519Z,1026.31
2019-03-29T11:43:00.768Z,1026.23
2019-03-29T11:44:00.779Z,1026.35
2019-03-29T11:45:00.786Z,1026.26
2019-03-29T11:46:00.793Z,1026.21
2019-03-29T11:47:00.796Z,1026.13
2019-03-29T11:48:08.259Z,1026.12
2019-03-29T11:49:00.805Z,1026.14
2019-03-29T11:50:00.809Z,1026.17
2019-03-29T11:51:00.824Z,1026.09
2019-03-29T11:52:00.819Z,1026.09
2019-03-29T11:53:00.824Z,1026.13
2019-03-29T11:54:00.823Z,1026.07
2019-03-29T11:55:00.826Z,1026.07
2019-03-29T11:56:00.837Z,1026.01
2019-03-29T11:57:00.837Z,1026.00
2019-03-29T11:58:00.841Z,1025.94
2019-03-29T11:59:00.846Z,1025.92
2019-03-29T12:00:00.843Z,1025.93
2019-03-29T12:01:00.845Z,1025.92
2019-03-29T12:02:00.849Z,1025.89
2019-03-29T12:03:00.846Z,1025.87
2019-03-29T12:04:00.852Z,1025.81
2019-03-29T12:05:00.854Z,1025.81